createdAt,value
2018-03-28T00:00:50.745Z,101186.36
2018-03-28T00:03:20.192Z,101189.86
2018-03-28T00:05:49.996Z,101181.31
2018-03-28T00:08:19.257Z,101188.50
2018-03-28T00:10:48.515Z,101184.14
2018-03-28T00:13:17.671Z,101189.02
2018-03-28T00:15:47.124Z,101206.40
2018-03-28T00:18:16.261Z,101195.87
2018-03-28T00:20:45.371Z,101200.97
2018-03-28T00:23:14.489Z,101204.81
2018-03-28T00:25:43.857Z,101196.09
2018-03-28T00:28:13.217Z,101189.86
2018-03-28T00:30:42.321Z,101191.27
2018-03-28T00:33:11.474Z,101220.63
2018-03-28T00:35:40.563Z,101222.09
2018-03-28T00:38:09.755Z,101223.84
2018-03-28T00:40:38.903Z,101221.19
2018-03-28T00:43:08.210Z,101224.52
2018-03-28T00:45:38.198Z,101232.41
2018-03-28T00:48:07.368Z,101222.42
2018-03-28T00:50:36.411Z,101242.41
2018-03-28T00:53:05.702Z,101235.73
2018-03-28T00:55:34.778Z,101220.39
2018-03-28T00:58:03.941Z,101210.88
2018-03-28T01:00:33.095Z,101210.59
2018-03-28T01:03:02.141Z,101198.58
2018-03-28T01:05:31.569Z,101193.42
2018-03-28T01:08:00.573Z,101185.94
2018-03-28T01:10:29.730Z,101176.67
2018-03-28T01:12:59.042Z,101178.98
2018-03-28T01:15:28.175Z,101190.53
2018-03-28T01:17:57.356Z,101196.55
2018-03-28T01:20:26.602Z,101199.33
2018-03-28T01:22:55.743Z,101197.91
2018-03-28T01:25:24.941Z,101202.53
2018-03-28T01:27:54.283Z,101193.88
2018-03-28T01:30:23.425Z,101192.35
2018-03-28T01:32:52.626Z,101188.78
2018-03-28T01:35:21.657Z,101182.91
2018-03-28T01:37:50.827Z,101182.45
2018-03-28T01:40:20.068Z,101182.45
2018-03-28T01:42:49.835Z,101180.50
2018-03-28T01:45:18.817Z,101183.98
2018-03-28T01:47:47.780Z,101172.69
2018-03-28T01:50:16.909Z,101184.73
2018-03-28T01:52:45.901Z,101189.80
2018-03-28T01:55:15.456Z,101192.86
2018-03-28T01:57:44.449Z,101195.61
2018-03-28T02:00:13.657Z,101193.73
2018-03-28T02:02:42.819Z,101197.72
2018-03-28T02:05:11.776Z,101187.69
2018-03-28T02:07:40.885Z,101187.52
2018-03-28T02:10:10.126Z,101203.03
2018-03-28T02:12:39.547Z,101205.14
2018-03-28T02:15:08.785Z,101197.85
2018-03-28T02:17:38.237Z,101188.09
2018-03-28T02:20:08.220Z,101183.47
2018-03-28T02:22:37.449Z,101201.09
2018-03-28T02:25:06.664Z,101194.90
2018-03-28T02:27:35.742Z,101189.86
2018-03-28T02:30:05.077Z,101178.31
2018-03-28T02:32:34.249Z,101186.74
2018-03-28T02:35:03.459Z,101191.25
2018-03-28T02:37:32.711Z,101185.70
2018-03-28T02:40:01.924Z,101172.74
2018-03-28T02:42:31.210Z,101174.41
2018-03-28T02:45:00.301Z,101187.98
2018-03-28T02:47:29.678Z,101189.68
2018-03-28T02:49:58.822Z,101195.36
2018-03-28T02:52:28.034Z,101186.95
2018-03-28T02:54:57.342Z,101178.64
2018-03-28T02:57:26.605Z,101186.92
2018-03-28T02:59:55.739Z,101185.16
2018-03-28T03:02:24.734Z,101180.20
2018-03-28T03:04:53.883Z,101171.24
2018-03-28T03:07:22.871Z,101183.29
2018-03-28T03:09:51.993Z,101185.50
2018-03-28T03:12:21.015Z,101173.94
2018-03-28T03:14:50.217Z,101177.00
2018-03-28T03:17:19.181Z,101183.23
2018-03-28T03:19:48.409Z,101175.06
2018-03-28T03:22:17.648Z,101175.42
2018-03-28T03:24:46.895Z,101185.87
2018-03-28T03:27:15.949Z,101180.95
2018-03-28T03:29:45.081Z,101180.32
2018-03-28T03:32:14.083Z,101179.59
2018-03-28T03:34:43.082Z,101184.86
2018-03-28T03:37:12.350Z,101192.13
2018-03-28T03:39:41.497Z,101189.41
2018-03-28T03:42:10.783Z,101184.72
2018-03-28T03:44:39.850Z,101188.90
2018-03-28T03:47:09.082Z,101189.17
2018-03-28T03:49:38.146Z,101187.88
2018-03-28T03:52:07.139Z,101186.12
2018-03-28T03:54:36.249Z,101183.63
2018-03-28T03:57:05.586Z,101180.58
2018-03-28T03:59:34.681Z,101169.70
2018-03-28T04:02:04.467Z,101153.64
2018-03-28T04:04:33.477Z,101147.77
2018-03-28T04:07:02.569Z,101157.57
2018-03-28T04:09:32.374Z,101156.14
2018-03-28T04:12:01.545Z,101154.25
2018-03-28T04:14:30.523Z,101137.41
2018-03-28T04:16:59.541Z,101148.00
2018-03-28T04:19:28.759Z,101158.10
2018-03-28T04:21:57.677Z,101165.64
2018-03-28T04:24:26.858Z,101168.94
2018-03-28T04:26:55.848Z,101170.73
2018-03-28T04:29:25.289Z,101169.25
2018-03-28T04:31:54.340Z,101160.63
2018-03-28T04:34:23.279Z,101174.85
2018-03-28T04:36:52.327Z,101174.58
2018-03-28T04:39:21.523Z,101181.31
2018-03-28T04:41:50.594Z,101180.77
2018-03-28T04:44:19.789Z,101176.32
2018-03-28T04:46:49.223Z,101172.70
2018-03-28T04:49:18.216Z,101176.45
2018-03-28T04:51:47.247Z,101179.61
2018-03-28T04:54:16.205Z,101176.55
2018-03-28T04:56:45.473Z,101171.11
2018-03-28T04:59:14.685Z,101176.31
2018-03-28T05:01:44.047Z,101176.20
2018-03-28T05:04:13.401Z,101173.65
2018-03-28T05:06:42.437Z,101175.55
2018-03-28T05:09:12.044Z,101173.50
2018-03-28T05:11:41.105Z,101165.68
2018-03-28T05:14:10.255Z,101180.50
2018-03-28T05:16:39.604Z,101181.53
2018-03-28T05:19:08.650Z,101180.85
2018-03-28T05:21:37.598Z,101175.97
2018-03-28T05:24:06.754Z,101166.63
2018-03-28T05:26:35.921Z,101170.27
2018-03-28T05:29:05.280Z,101174.73
2018-03-28T05:31:34.342Z,101169.92
2018-03-28T05:34:03.500Z,101171.63
2018-03-28T05:36:32.782Z,101173.16
2018-03-28T05:39:01.867Z,101169.48
2018-03-28T05:41:31.113Z,101176.98
2018-03-28T05:44:00.210Z,101171.54
2018-03-28T05:46:29.260Z,101177.97
2018-03-28T05:48:58.455Z,101180.44
2018-03-28T05:51:27.684Z,101188.64
2018-03-28T05:53:56.730Z,101182.33
2018-03-28T05:56:26.033Z,101185.38
2018-03-28T05:58:55.294Z,101181.16
2018-03-28T06:01:26.085Z,101183.99
2018-03-28T06:03:55.443Z,101181.59
2018-03-28T06:06:24.650Z,101190.59
2018-03-28T06:08:53.995Z,101196.54
2018-03-28T06:11:23.076Z,101199.41
2018-03-28T06:13:52.294Z,101207.13
2018-03-28T06:16:21.488Z,101198.80
2018-03-28T06:18:50.898Z,101190.06
2018-03-28T06:21:20.262Z,101198.73
2018-03-28T06:23:49.542Z,101198.77
2018-03-28T06:26:18.672Z,101195.45
2018-03-28T06:28:48.101Z,101200.62
2018-03-28T06:31:17.264Z,101210.88
2018-03-28T06:33:46.544Z,101212.69
2018-03-28T06:36:15.800Z,101211.26
2018-03-28T06:38:44.828Z,101212.29
2018-03-28T06:41:14.085Z,101211.53
2018-03-28T06:43:43.383Z,101209.95
2018-03-28T06:46:12.479Z,101213.98
2018-03-28T06:48:41.618Z,101215.00
2018-03-28T06:51:11.041Z,101208.37
2018-03-28T06:53:40.383Z,101209.69
2018-03-28T06:56:09.683Z,101201.73
2018-03-28T06:58:38.772Z,101214.14
2018-03-28T07:01:08.025Z,101208.49
2018-03-28T07:03:37.038Z,101206.69
2018-03-28T07:06:06.110Z,101197.15
2018-03-28T07:08:35.332Z,101195.58
2018-03-28T07:11:04.668Z,101194.00
2018-03-28T07:13:33.909Z,101183.52
2018-03-28T07:16:03.264Z,101196.03
2018-03-28T07:18:32.447Z,101200.19
2018-03-28T07:21:01.782Z,101199.55
2018-03-28T07:23:30.962Z,101207.31
2018-03-28T07:26:00.167Z,101215.40
2018-03-28T07:28:29.874Z,101224.78
2018-03-28T07:30:58.846Z,101222.70
2018-03-28T07:33:28.372Z,101217.52
2018-03-28T07:35:57.679Z,101218.89
2018-03-28T07:38:26.878Z,101211.70
2018-03-28T07:40:56.046Z,101213.92
2018-03-28T07:43:25.268Z,101202.86
2018-03-28T07:45:54.419Z,101199.33
2018-03-28T07:48:23.562Z,101202.59
2018-03-28T07:50:52.702Z,101206.87
2018-03-28T07:53:22.166Z,101206.40
2018-03-28T07:55:51.686Z,101205.69
2018-03-28T07:58:20.810Z,101191.47
2018-03-28T08:00:50.165Z,101183.50
2018-03-28T08:03:19.409Z,101191.27
2018-03-28T08:05:48.575Z,101216.67
2018-03-28T08:08:18.591Z,101229.92
2018-03-28T08:10:50.948Z,101233.39
2018-03-28T08:13:20.559Z,101228.03
2018-03-28T08:15:49.931Z,101225.30
2018-03-28T08:18:19.109Z,101200.78
2018-03-28T08:20:48.366Z,101222.63
2018-03-28T08:23:17.673Z,101217.97
2018-03-28T08:25:47.213Z,101207.06
2018-03-28T08:28:16.477Z,101215.16
2018-03-28T08:30:45.665Z,101211.47
2018-03-28T08:33:14.822Z,101212.39
2018-03-28T08:35:44.110Z,101202.86
2018-03-28T08:38:13.277Z,101201.72
2018-03-28T08:40:42.426Z,101185.83
2018-03-28T08:43:11.605Z,101183.84
2018-03-28T08:45:40.971Z,101172.83
2018-03-28T08:48:10.119Z,101206.00
2018-03-28T08:50:39.207Z,101169.61
2018-03-28T08:53:08.433Z,101141.81
2018-03-28T08:55:37.598Z,101155.81
2018-03-28T08:58:06.852Z,101151.53
2018-03-28T09:00:36.774Z,101171.34
2018-03-28T09:03:05.907Z,101166.37
2018-03-28T09:05:35.330Z,101185.60
2018-03-28T09:08:04.542Z,101176.84
2018-03-28T09:10:33.619Z,101165.11
2018-03-28T09:13:02.765Z,101168.97
2018-03-28T09:15:31.963Z,101162.20
2018-03-28T09:18:01.060Z,101169.53
2018-03-28T09:20:30.349Z,101180.31
2018-03-28T09:22:59.574Z,101177.34
2018-03-28T09:25:28.647Z,101183.30
2018-03-28T09:27:58.107Z,101192.30
2018-03-28T09:30:27.325Z,101194.13
2018-03-28T09:32:56.556Z,101193.98
2018-03-28T09:35:25.650Z,101173.25
2018-03-28T09:37:54.844Z,101183.88
2018-03-28T09:40:23.989Z,101191.91
2018-03-28T09:42:53.117Z,101188.27
2018-03-28T09:45:22.342Z,101180.72
2018-03-28T09:47:52.267Z,101183.94
2018-03-28T09:50:21.352Z,101183.16
2018-03-28T09:52:50.304Z,101179.62
2018-03-28T09:55:19.492Z,101168.48
2018-03-28T09:57:48.597Z,101166.80
2018-03-28T10:00:23.683Z,101160.94
2018-03-28T10:02:58.547Z,101166.35
2018-03-28T10:05:33.512Z,101155.97
2018-03-28T10:08:02.744Z,101150.52
2018-03-28T10:10:31.827Z,101147.67
2018-03-28T10:13:01.011Z,101144.72
2018-03-28T10:15:30.354Z,101143.06
2018-03-28T10:17:59.775Z,101141.19
2018-03-28T10:20:28.990Z,101150.25
2018-03-28T10:22:58.550Z,101155.08
2018-03-28T10:25:27.829Z,101146.73
2018-03-28T10:27:57.045Z,101157.19
2018-03-28T10:30:26.122Z,101162.53
2018-03-28T10:32:55.323Z,101155.34
2018-03-28T10:35:24.582Z,101140.19
2018-03-28T10:37:53.749Z,101148.11
2018-03-28T10:40:23.234Z,101153.38
2018-03-28T10:42:52.485Z,101170.80
2018-03-28T10:45:22.356Z,101158.94
2018-03-28T10:47:51.521Z,101150.66
2018-03-28T10:50:20.677Z,101153.78
2018-03-28T10:52:49.998Z,101156.44
2018-03-28T10:55:19.046Z,101157.12
2018-03-28T10:57:48.517Z,101154.68
2018-03-28T11:00:17.806Z,101149.31
2018-03-28T11:02:47.103Z,101152.42
2018-03-28T11:05:16.287Z,101141.01
2018-03-28T11:07:45.505Z,101144.73
2018-03-28T11:10:14.881Z,101144.62
2018-03-28T11:12:44.261Z,101141.95
2018-03-28T11:15:13.615Z,101146.34
2018-03-28T11:17:42.833Z,101151.38
2018-03-28T11:20:12.577Z,101140.95
2018-03-28T11:22:41.838Z,101138.62
2018-03-28T11:25:10.883Z,101140.34
2018-03-28T11:27:40.199Z,101144.05
2018-03-28T11:30:09.299Z,101138.17
2018-03-28T11:32:38.459Z,101137.18
2018-03-28T11:35:07.649Z,101132.98
2018-03-28T11:37:36.893Z,101133.92
2018-03-28T11:40:06.154Z,101141.26
2018-03-28T11:42:35.291Z,101145.09
2018-03-28T11:45:04.489Z,101146.50
2018-03-28T11:47:33.859Z,101143.52
2018-03-28T11:50:03.044Z,101146.45
2018-03-28T11:52:32.145Z,101144.66
2018-03-28T11:55:01.532Z,101148.39
2018-03-28T11:57:30.690Z,101139.39
2018-03-28T11:59:59.767Z,101140.30
2018-03-28T12:02:29.231Z,101140.39
2018-03-28T12:04:58.445Z,101136.06
2018-03-28T12:07:27.544Z,101135.50
2018-03-28T12:09:56.685Z,101130.14
2018-03-28T12:12:26.040Z,101125.81
2018-03-28T12:14:55.251Z,101135.52
2018-03-28T12:17:24.487Z,101133.88
2018-03-28T12:19:53.750Z,101128.14
2018-03-28T12:22:22.823Z,101128.20
2018-03-28T12:24:51.813Z,101121.80
2018-03-28T12:27:21.054Z,101129.86
2018-03-28T12:29:50.170Z,101127.61
2018-03-28T12:32:19.439Z,101128.52
2018-03-28T12:34:48.989Z,101117.38
2018-03-28T12:37:18.096Z,101126.86
2018-03-28T12:39:47.162Z,101117.73
2018-03-28T12:42:16.515Z,101115.51
2018-03-28T12:44:45.721Z,101117.97
2018-03-28T12:47:14.740Z,101122.88
2018-03-28T12:49:44.150Z,101121.11
2018-03-28T12:52:13.224Z,101131.63
2018-03-28T12:54:42.475Z,101113.73
2018-03-28T12:57:11.578Z,101110.34
2018-03-28T12:59:40.647Z,101104.90
2018-03-28T13:02:09.803Z,101108.48
2018-03-28T13:04:39.150Z,101113.38
2018-03-28T13:07:08.585Z,101112.13
2018-03-28T13:09:38.666Z,101107.13
2018-03-28T13:12:07.917Z,101108.59
2018-03-28T13:14:37.213Z,101105.33
2018-03-28T13:17:06.395Z,101103.48
2018-03-28T13:19:35.605Z,101097.02
2018-03-28T13:22:04.668Z,101090.36
2018-03-28T13:24:34.020Z,101083.83
2018-03-28T13:27:03.428Z,101085.44
2018-03-28T13:29:32.558Z,101080.78
2018-03-28T13:32:02.612Z,101081.33
2018-03-28T13:34:31.917Z,101088.39
2018-03-28T13:37:01.014Z,101077.17
2018-03-28T13:39:30.327Z,101082.12
2018-03-28T13:41:59.479Z,101086.48
2018-03-28T13:44:28.678Z,101084.77
2018-03-28T13:46:58.036Z,101083.09
2018-03-28T13:49:27.093Z,101087.83
2018-03-28T13:51:56.422Z,101081.04
2018-03-28T13:54:25.601Z,101088.25
2018-03-28T13:56:54.662Z,101089.83
2018-03-28T13:59:24.124Z,101094.81
2018-03-28T14:01:54.094Z,101090.66
2018-03-28T14:04:23.278Z,101094.10
2018-03-28T14:06:52.488Z,101099.33
2018-03-28T14:09:21.733Z,101091.73
2018-03-28T14:11:51.235Z,101094.66
2018-03-28T14:14:20.647Z,101102.81
2018-03-28T14:16:49.793Z,101096.39
2018-03-28T14:19:18.831Z,101091.94
2018-03-28T14:21:48.016Z,101089.88
2018-03-28T14:24:17.450Z,101086.79
2018-03-28T14:26:46.754Z,101085.70
2018-03-28T14:29:15.811Z,101090.17
2018-03-28T14:31:45.280Z,101090.09
2018-03-28T14:34:15.125Z,101089.46
2018-03-28T14:36:44.221Z,101099.68
2018-03-28T14:39:13.344Z,101096.83
2018-03-28T14:41:42.482Z,101098.69
2018-03-28T14:44:11.739Z,101099.31
2018-03-28T14:46:41.044Z,101104.82
2018-03-28T14:49:10.077Z,101099.59
2018-03-28T14:51:39.591Z,101099.61
2018-03-28T14:54:08.687Z,101100.04
2018-03-28T14:56:37.932Z,101096.48
2018-03-28T14:59:07.042Z,101088.64
2018-03-28T15:01:36.134Z,101090.14
2018-03-28T15:04:05.379Z,101088.55
2018-03-28T15:06:34.736Z,101088.11
2018-03-28T15:09:03.989Z,101082.22
2018-03-28T15:11:33.479Z,101091.36
2018-03-28T15:14:02.574Z,101085.69
2018-03-28T15:16:31.826Z,101077.66
2018-03-28T15:19:01.031Z,101079.59
2018-03-28T15:21:30.192Z,101083.37
2018-03-28T15:23:59.401Z,101078.63
2018-03-28T15:26:28.467Z,101069.01
2018-03-28T15:28:58.098Z,101073.64
2018-03-28T15:31:27.526Z,101066.91
2018-03-28T15:33:56.535Z,101067.19
2018-03-28T15:36:25.721Z,101067.08
2018-03-28T15:38:55.008Z,101069.64
2018-03-28T15:41:24.110Z,101071.37
2018-03-28T15:43:53.267Z,101066.91
2018-03-28T15:46:22.369Z,101072.51
2018-03-28T15:48:51.557Z,101070.19
2018-03-28T15:51:20.632Z,101067.91
2018-03-28T15:53:49.667Z,101073.05
2018-03-28T15:56:18.640Z,101064.70
2018-03-28T15:58:47.730Z,101068.81
2018-03-28T16:01:16.981Z,101072.08
2018-03-28T16:03:46.241Z,101075.55
2018-03-28T16:06:15.381Z,101067.66
2018-03-28T16:08:44.606Z,101060.80
2018-03-28T16:11:13.787Z,101058.03
2018-03-28T16:13:42.914Z,101059.52
2018-03-28T16:16:12.221Z,101064.09
2018-03-28T16:18:41.413Z,101065.75
2018-03-28T16:21:10.630Z,101062.47
2018-03-28T16:23:39.623Z,101062.91
2018-03-28T16:26:08.768Z,101057.23
2018-03-28T16:28:37.946Z,101053.41
2018-03-28T16:31:07.002Z,101053.41
2018-03-28T16:33:36.153Z,101055.09
2018-03-28T16:36:05.244Z,101056.78
2018-03-28T16:38:34.390Z,101064.16
2018-03-28T16:41:03.607Z,101069.14
2018-03-28T16:43:32.703Z,101077.24
2018-03-28T16:46:01.896Z,101075.30
2018-03-28T16:48:31.038Z,101076.62
2018-03-28T16:51:00.102Z,101078.41
2018-03-28T16:53:29.332Z,101078.34
2018-03-28T16:55:58.481Z,101080.55
2018-03-28T16:58:28.298Z,101083.56
2018-03-28T17:00:57.579Z,101069.94
2018-03-28T17:03:27.130Z,101065.41
2018-03-28T17:05:56.443Z,101062.19
2018-03-28T17:08:25.529Z,101060.98
2018-03-28T17:10:54.795Z,101055.80
2018-03-28T17:13:24.199Z,101056.25
2018-03-28T17:15:53.567Z,101061.30
2018-03-28T17:18:22.743Z,101059.81
2018-03-28T17:20:51.895Z,101060.50
2018-03-28T17:23:21.046Z,101061.92
2018-03-28T17:25:50.485Z,101064.69
2018-03-28T17:28:19.732Z,101067.97
2018-03-28T17:30:48.838Z,101064.97
2018-03-28T17:33:17.981Z,101070.98
2018-03-28T17:35:47.217Z,101074.62
2018-03-28T17:38:16.447Z,101068.66
2018-03-28T17:40:45.641Z,101070.19
2018-03-28T17:43:14.679Z,101067.70
2018-03-28T17:45:44.136Z,101070.64
2018-03-28T17:48:13.333Z,101065.27
2018-03-28T17:50:42.677Z,101062.72
2018-03-28T17:53:11.877Z,101064.30
2018-03-28T17:55:41.128Z,101060.16
2018-03-28T17:58:10.381Z,101069.67
2018-03-28T18:00:39.739Z,101065.04
2018-03-28T18:03:09.036Z,101059.63
2018-03-28T18:05:38.202Z,101063.98
2018-03-28T18:08:07.441Z,101072.98
2018-03-28T18:10:37.312Z,101075.72
2018-03-28T18:13:06.743Z,101069.77
2018-03-28T18:15:35.933Z,101069.67
2018-03-28T18:18:05.045Z,101070.22
2018-03-28T18:20:34.603Z,101076.72
2018-03-28T18:23:03.681Z,101078.66
2018-03-28T18:25:32.975Z,101085.19
2018-03-28T18:28:02.349Z,101084.37
2018-03-28T18:30:31.745Z,101076.97
2018-03-28T18:33:01.048Z,101086.03
2018-03-28T18:35:30.238Z,101086.31
2018-03-28T18:37:59.295Z,101081.40
2018-03-28T18:40:28.375Z,101086.59
2018-03-28T18:42:57.508Z,101083.47
2018-03-28T18:45:26.721Z,101077.77
2018-03-28T18:47:56.524Z,101075.34
2018-03-28T18:50:25.918Z,101068.08
2018-03-28T18:52:55.050Z,101067.00
2018-03-28T18:55:24.366Z,101065.69
2018-03-28T18:57:53.524Z,101042.37
2018-03-28T19:00:22.769Z,101037.11
2018-03-28T19:02:52.138Z,101022.54
2018-03-28T19:05:21.391Z,101016.99
2018-03-28T19:07:50.752Z,101009.61
2018-03-28T19:10:20.810Z,101005.42
2018-03-28T19:12:50.194Z,100996.09
2018-03-28T19:15:19.357Z,100996.59
2018-03-28T19:17:48.461Z,101012.55
2018-03-28T19:20:17.710Z,101026.27
2018-03-28T19:22:46.906Z,101043.44
2018-03-28T19:25:16.083Z,101029.81
2018-03-28T19:27:45.676Z,101021.17
2018-03-28T19:30:14.805Z,101033.91
2018-03-28T19:32:43.936Z,101049.47
2018-03-28T19:35:13.763Z,101050.55
2018-03-28T19:37:43.185Z,101039.69
2018-03-28T19:40:12.317Z,101040.93
2018-03-28T19:42:41.563Z,101040.30
2018-03-28T19:45:10.586Z,101045.98
2018-03-28T19:47:39.742Z,101041.97
2018-03-28T19:50:09.050Z,101034.08
2018-03-28T19:52:38.149Z,101029.00
2018-03-28T19:55:07.443Z,101036.22
2018-03-28T19:57:36.660Z,101036.22
2018-03-28T20:00:05.882Z,101029.62
2018-03-28T20:02:35.315Z,101031.14
2018-03-28T20:05:04.714Z,101027.75
2018-03-28T20:07:33.878Z,101027.30
2018-03-28T20:10:03.066Z,101023.67
2018-03-28T20:12:32.444Z,101015.48
2018-03-28T20:15:01.511Z,101023.73
2018-03-28T20:17:30.566Z,101039.03
2018-03-28T20:19:59.792Z,101048.74
2018-03-28T20:22:29.055Z,101056.91
2018-03-28T20:24:58.281Z,101062.09
2018-03-28T20:27:27.462Z,101046.64
2018-03-28T20:29:56.439Z,101040.16
2018-03-28T20:32:25.534Z,101035.42
2018-03-28T20:34:54.741Z,101046.60
2018-03-28T20:37:23.873Z,101041.23
2018-03-28T20:39:53.082Z,101039.92
2018-03-28T20:42:22.353Z,101030.09
2018-03-28T20:44:51.473Z,101040.95
2018-03-28T20:47:20.870Z,101037.50
2018-03-28T20:49:50.021Z,101030.92
2018-03-28T20:52:19.009Z,101028.33
2018-03-28T20:54:48.266Z,101028.67
2018-03-28T20:57:17.429Z,101037.04
2018-03-28T20:59:46.764Z,101026.86
2018-03-28T21:02:16.029Z,101036.48
2018-03-28T21:04:45.422Z,101035.17
2018-03-28T21:07:14.564Z,101046.77
2018-03-28T21:09:43.859Z,101051.34
2018-03-28T21:12:13.171Z,101060.05
2018-03-28T21:14:42.345Z,101063.45
2018-03-28T21:17:11.755Z,101066.79
2018-03-28T21:19:41.434Z,101066.06
2018-03-28T21:22:10.613Z,101068.16
2018-03-28T21:24:40.561Z,101071.73
2018-03-28T21:27:09.835Z,101066.84
2018-03-28T21:29:38.938Z,101063.12
2018-03-28T21:32:08.049Z,101061.53
2018-03-28T21:34:37.184Z,101049.44
2018-03-28T21:37:06.346Z,101038.95
2018-03-28T21:39:35.679Z,101033.87
2018-03-28T21:42:04.813Z,101032.52
2018-03-28T21:44:34.127Z,101024.14
2018-03-28T21:47:03.460Z,101020.23
2018-03-28T21:49:32.617Z,101016.91
2018-03-28T21:52:02.175Z,101002.47
2018-03-28T21:54:31.363Z,100995.69
2018-03-28T21:57:00.474Z,100980.93
2018-03-28T21:59:29.717Z,100981.55
2018-03-28T22:01:59.041Z,100981.31
2018-03-28T22:04:28.242Z,100961.75
2018-03-28T22:06:57.469Z,100958.91
2018-03-28T22:09:26.625Z,100961.30
2018-03-28T22:11:55.837Z,100960.95
2018-03-28T22:14:25.150Z,100964.09
2018-03-28T22:16:55.719Z,100974.54
2018-03-28T22:19:24.847Z,100967.87
2018-03-28T22:21:53.958Z,100973.19
2018-03-28T22:24:23.159Z,100951.52
2018-03-28T22:26:52.332Z,100937.21
2018-03-28T22:29:21.538Z,100919.06
2018-03-28T22:31:50.639Z,100919.06
2018-03-28T22:34:19.748Z,100909.56
2018-03-28T22:36:49.077Z,100893.20
2018-03-28T22:39:18.153Z,100887.67
2018-03-28T22:41:47.289Z,100893.02
2018-03-28T22:44:16.334Z,100883.27
2018-03-28T22:46:45.343Z,100866.72
2018-03-28T22:49:14.406Z,100853.57
2018-03-28T22:51:43.400Z,100861.23
2018-03-28T22:54:12.496Z,100867.16
2018-03-28T22:56:41.505Z,100888.23
2018-03-28T22:59:11.234Z,100916.31
2018-03-28T23:01:40.281Z,100924.66
2018-03-28T23:04:09.392Z,100928.84
2018-03-28T23:06:38.517Z,100922.54
2018-03-28T23:09:07.617Z,100918.64
2018-03-28T23:11:36.691Z,100914.65
2018-03-28T23:14:05.875Z,100913.47
2018-03-28T23:16:34.967Z,100909.05
2018-03-28T23:19:04.120Z,100920.77
2018-03-28T23:21:33.058Z,100930.10
2018-03-28T23:24:02.301Z,100934.19
2018-03-28T23:26:31.344Z,100933.05
2018-03-28T23:29:00.350Z,100934.30
2018-03-28T23:31:29.486Z,100931.87
2018-03-28T23:33:58.429Z,100932.22
2018-03-28T23:36:27.450Z,100933.57
2018-03-28T23:38:56.579Z,100937.03
2018-03-28T23:41:25.774Z,100929.22
2018-03-28T23:43:55.422Z,100925.76
2018-03-28T23:46:24.678Z,100934.98
2018-03-28T23:48:53.614Z,100948.69
2018-03-28T23:51:22.627Z,100943.45
2018-03-28T23:53:51.861Z,100937.92
2018-03-28T23:56:20.915Z,100926.73
2018-03-28T23:58:49.950Z,100914.21
